createdAt,value
2016-04-21T00:00:42.849Z,21.56
2016-04-21T00:01:45.883Z,21.6
2016-04-21T00:02:45.761Z,21.51
2016-04-21T00:03:42.670Z,21.58
2016-04-21T00:04:42.703Z,21.53
2016-04-21T00:05:42.597Z,21.59
2016-04-21T00:06:42.599Z,21.58
2016-04-21T00:07:42.493Z,21.58
2016-04-21T00:08:42.964Z,21.53
2016-04-21T00:09:42.405Z,21.58
2016-04-21T00:10:42.361Z,21.47
2016-04-21T00:11:42.519Z,21.59
2016-04-21T00:12:45.475Z,21.56
2016-04-21T00:13:42.228Z,21.56
2016-04-21T00:14:48.715Z,21.53
2016-04-21T00:15:45.140Z,21.53
2016-04-21T00:16:42.095Z,21.54
2016-04-21T00:17:48.301Z,21.54
2016-04-21T00:18:42.069Z,21.54
2016-04-21T00:19:41.807Z,21.47
2016-04-21T00:20:45.200Z,21.51
2016-04-21T00:21:44.890Z,21.48
2016-04-21T00:22:41.815Z,21.48
2016-04-21T00:23:41.832Z,21.51
2016-04-21T00:24:41.726Z,21.5
2016-04-21T00:25:41.681Z,21.44
2016-04-21T00:26:41.653Z,21.45
2016-04-21T00:27:44.906Z,21.47
2016-04-21T00:28:47.565Z,21.53
2016-04-21T00:29:41.709Z,21.5
2016-04-21T00:30:44.445Z,21.48
2016-04-21T00:31:47.729Z,21.47
2016-04-21T00:32:41.388Z,21.51
2016-04-21T00:33:41.313Z,21.51
2016-04-21T00:34:44.503Z,21.5
2016-04-21T00:35:41.771Z,21.53
2016-04-21T00:36:44.197Z,21.45
2016-04-21T00:37:44.136Z,21.5
2016-04-21T00:38:41.138Z,21.48
2016-04-21T00:39:44.048Z,21.47
2016-04-21T00:40:44.222Z,21.45
2016-04-21T00:41:43.959Z,21.44
2016-04-21T00:42:41.024Z,21.45
2016-04-21T00:43:43.871Z,21.43
2016-04-21T00:44:43.843Z,21.47
2016-04-21T00:45:40.971Z,21.47
2016-04-21T00:46:40.754Z,21.44
2016-04-21T00:47:43.694Z,21.41
2016-04-21T00:48:40.649Z,21.45
2016-04-21T00:49:40.793Z,21.44
2016-04-21T00:50:40.546Z,21.43
2016-04-21T00:51:40.501Z,21.45
2016-04-21T00:52:43.490Z,21.41
2016-04-21T00:53:46.476Z,21.41
2016-04-21T00:54:43.776Z,21.43
2016-04-21T00:55:43.373Z,21.45
2016-04-21T00:56:43.328Z,21.35
2016-04-21T00:57:46.456Z,21.47
2016-04-21T00:58:43.223Z,21.44
2016-04-21T00:59:43.383Z,21.44
2016-04-21T01:00:40.104Z,21.4
2016-04-21T01:01:40.107Z,21.41
2016-04-21T01:02:40.219Z,21.43
2016-04-21T01:03:49.003Z,21.41
2016-04-21T01:04:45.958Z,21.29
2016-04-21T01:05:43.194Z,21.44
2016-04-21T01:06:46.149Z,21.35
2016-04-21T01:07:43.024Z,21.4
2016-04-21T01:08:45.947Z,21.33
2016-04-21T01:09:39.938Z,21.4
2016-04-21T01:10:43.099Z,21.32
2016-04-21T01:11:39.868Z,21.3
2016-04-21T01:12:39.840Z,21.41
2016-04-21T01:13:40.297Z,21.4
2016-04-21T01:14:39.780Z,21.38
2016-04-21T01:15:42.743Z,21.4
2016-04-21T01:16:43.001Z,21.37
2016-04-21T01:17:42.666Z,21.37
2016-04-21T01:18:39.627Z,21.4
2016-04-21T01:19:39.572Z,21.4
2016-04-21T01:20:39.562Z,21.37
2016-04-21T01:21:39.519Z,21.33
2016-04-21T01:22:45.498Z,21.35
2016-04-21T01:23:39.392Z,21.35
2016-04-21T01:24:39.366Z,21.33
2016-04-21T01:25:42.339Z,21.35
2016-04-21T01:26:39.264Z,21.33
2016-04-21T01:27:39.439Z,21.33
2016-04-21T01:28:42.192Z,21.37
2016-04-21T01:29:42.133Z,21.35
2016-04-21T01:30:45.448Z,21.33
2016-04-21T01:31:39.061Z,21.33
2016-04-21T01:32:39.001Z,21.35
2016-04-21T01:33:38.942Z,21.37
2016-04-21T01:34:41.929Z,21.37
2016-04-21T01:35:38.854Z,21.33
2016-04-21T01:36:38.810Z,21.32
2016-04-21T01:37:41.984Z,21.38
2016-04-21T01:38:41.722Z,21.3
2016-04-21T01:39:41.787Z,21.32
2016-04-21T01:40:38.649Z,21.37
2016-04-21T01:41:41.589Z,21.28
2016-04-21T01:42:38.545Z,21.38
2016-04-21T01:43:38.719Z,21.32
2016-04-21T01:44:41.456Z,21.32
2016-04-21T01:45:38.397Z,21.29
2016-04-21T01:46:44.900Z,21.32
2016-04-21T01:47:41.309Z,21.28
2016-04-21T01:48:41.295Z,21.3
2016-04-21T01:49:41.564Z,21.3
2016-04-21T01:50:44.253Z,21.29
2016-04-21T01:51:38.131Z,21.29
2016-04-21T01:52:41.088Z,21.26
2016-04-21T01:53:38.044Z,21.33
2016-04-21T01:54:38.015Z,21.23
2016-04-21T01:55:44.174Z,21.23
2016-04-21T01:56:40.927Z,21.23
2016-04-21T01:57:38.054Z,21.3
2016-04-21T01:58:40.807Z,21.3
2016-04-21T01:59:43.777Z,21.23
2016-04-21T02:00:40.812Z,21.2
2016-04-21T02:01:37.877Z,21.22
2016-04-21T02:02:37.630Z,21.28
2016-04-21T02:03:40.883Z,21.19
2016-04-21T02:04:37.541Z,21.25
2016-04-21T02:05:47.529Z,21.2
2016-04-21T02:06:47.671Z,21.19
2016-04-21T02:07:47.457Z,21.2
2016-04-21T02:08:41.834Z,21.17
2016-04-21T02:09:47.368Z,21.13
2016-04-21T02:10:47.323Z,21.2
2016-04-21T02:11:44.295Z,21.2
2016-04-21T02:12:44.531Z,21.2
2016-04-21T02:13:41.160Z,21.13
2016-04-21T02:14:44.819Z,21.19
2016-04-21T02:15:44.118Z,21.25
2016-04-21T02:16:47.027Z,21.19
2016-04-21T02:17:46.983Z,21.22
2016-04-21T02:18:46.969Z,21.19
2016-04-21T02:19:49.894Z,21.19
2016-04-21T02:20:47.070Z,21.19
2016-04-21T02:21:49.822Z,21.23
2016-04-21T02:22:40.746Z,21.2
2016-04-21T02:23:43.749Z,21.14
2016-04-21T02:24:40.675Z,21.22
2016-04-21T02:25:43.614Z,21.2
2016-04-21T02:26:40.586Z,21.19
2016-04-21T02:27:46.541Z,21.17
2016-04-21T02:28:40.466Z,21.2
2016-04-21T02:29:43.734Z,21.25
2016-04-21T02:30:40.408Z,21.19
2016-04-21T02:31:40.349Z,21.15
2016-04-21T02:32:43.507Z,21.22
2016-04-21T02:33:40.244Z,21.17
2016-04-21T02:34:40.404Z,21.2
2016-04-21T02:35:40.156Z,21.19
2016-04-21T02:36:40.144Z,21.11
2016-04-21T02:37:43.068Z,21.11
2016-04-21T02:38:40.087Z,21.15
2016-04-21T02:39:40.386Z,21.07
2016-04-21T02:40:42.951Z,21.15
2016-04-21T02:41:42.891Z,21.13
2016-04-21T02:42:43.050Z,21.08
2016-04-21T02:43:39.803Z,21.1
2016-04-21T02:44:39.743Z,21.08
2016-04-21T02:45:39.714Z,21.04
2016-04-21T02:47:31.251Z,21.1
2016-04-21T02:47:46.642Z,21.13
2016-04-21T02:48:49.989Z,21.13
2016-04-21T02:49:52.772Z,21.04
2016-04-21T02:50:55.525Z,21.07
2016-04-21T02:51:52.465Z,21.08
2016-04-21T02:52:46.420Z,21.05
2016-04-21T02:53:46.361Z,21.04
2016-04-21T02:54:46.301Z,21.03
2016-04-21T02:55:46.819Z,21.08
2016-04-21T02:56:46.213Z,21.07
2016-04-21T02:57:46.230Z,21.07
2016-04-21T02:58:46.125Z,21.03
2016-04-21T02:59:49.096Z,21.01
2016-04-21T03:00:49.255Z,21.04
2016-04-21T03:01:49.195Z,21.07
2016-04-21T03:02:45.947Z,21.1
2016-04-21T03:03:46.060Z,21.1
2016-04-21T03:04:45.860Z,21.07
2016-04-21T03:05:45.862Z,21.05
2016-04-21T03:06:45.974Z,21.04
2016-04-21T03:07:45.710Z,21.05
2016-04-21T03:08:45.682Z,21.08
2016-04-21T03:09:45.624Z,21.04
2016-04-21T03:10:48.579Z,21.04
2016-04-21T03:11:48.551Z,21.08
2016-04-21T03:12:45.521Z,21.07
2016-04-21T03:13:45.446Z,21.04
2016-04-21T03:14:46.027Z,21.04
2016-04-21T03:15:45.357Z,21.03
2016-04-21T03:16:48.314Z,21.07
2016-04-21T03:17:48.284Z,21.07
2016-04-21T03:18:45.506Z,21.1
2016-04-21T03:19:45.165Z,21.04
2016-04-21T03:20:48.339Z,21.05
2016-04-21T03:21:48.081Z,21.1
2016-04-21T03:22:54.057Z,21.05
2016-04-21T03:23:45.216Z,21.05
2016-04-21T03:24:48.000Z,21.01
2016-04-21T03:25:47.893Z,20.96
2016-04-21T03:26:50.865Z,20.95
2016-04-21T03:27:51.039Z,21
2016-04-21T03:28:44.762Z,21.05
2016-04-21T03:29:44.717Z,21.03
2016-04-21T03:30:44.672Z,21.05
2016-04-21T03:31:47.659Z,21.03
2016-04-21T03:32:44.943Z,20.96
2016-04-21T03:33:44.556Z,21.05
2016-04-21T03:34:44.495Z,21.01
2016-04-21T03:35:47.451Z,21
2016-04-21T03:36:44.392Z,20.95
2016-04-21T03:37:44.364Z,21
2016-04-21T03:38:50.334Z,20.95
2016-04-21T03:39:47.306Z,20.95
2016-04-21T03:40:47.261Z,20.98
2016-04-21T03:41:44.249Z,20.98
2016-04-21T03:42:44.127Z,20.93
2016-04-21T03:43:47.286Z,21
2016-04-21T03:44:44.054Z,21
2016-04-21T03:45:47.057Z,20.89
2016-04-21T03:46:46.965Z,20.93
2016-04-21T03:47:49.906Z,20.9
2016-04-21T03:48:46.846Z,20.9
2016-04-21T03:49:46.818Z,20.92
2016-04-21T03:50:46.773Z,20.9
2016-04-21T03:51:46.916Z,20.9
2016-04-21T03:52:43.668Z,20.9
2016-04-21T03:53:43.625Z,20.9
2016-04-21T03:54:43.612Z,20.9
2016-04-21T03:55:43.537Z,20.93
2016-04-21T03:56:43.477Z,20.89
2016-04-21T03:57:46.448Z,20.88
2016-04-21T03:58:46.420Z,20.9
2016-04-21T03:59:43.344Z,20.93
2016-04-21T04:00:46.378Z,20.95
2016-04-21T04:01:43.256Z,21.01
2016-04-21T04:02:46.509Z,20.98
2016-04-21T04:03:43.167Z,20.95
2016-04-21T04:04:43.123Z,21.01
2016-04-21T04:05:46.095Z,20.95
2016-04-21T04:06:43.019Z,20.98
2016-04-21T04:07:43.194Z,21.05
2016-04-21T04:08:43.164Z,20.96
2016-04-21T04:09:45.918Z,21.08
2016-04-21T04:10:48.858Z,21.04
2016-04-21T04:11:42.798Z,21.07
2016-04-21T04:12:46.363Z,21.07
2016-04-21T04:13:45.725Z,21.04
2016-04-21T04:14:42.665Z,21.07
2016-04-21T04:15:45.840Z,21.03
2016-04-21T04:16:42.577Z,21.05
2016-04-21T04:17:42.564Z,21.14
2016-04-21T04:18:42.474Z,21.07
2016-04-21T04:19:42.429Z,21.08
2016-04-21T04:20:45.416Z,21.05
2016-04-21T04:21:42.341Z,21.08
2016-04-21T04:22:45.328Z,21.14
2016-04-21T04:23:45.268Z,21.11
2016-04-21T04:24:48.240Z,21.1
2016-04-21T04:25:42.148Z,21.14
2016-04-21T04:26:42.151Z,21.15
2016-04-21T04:27:45.388Z,21.08
2016-04-21T04:28:42.093Z,21.14
2016-04-21T04:29:42.191Z,21.1
2016-04-21T04:30:42.162Z,21.14
2016-04-21T04:31:44.899Z,21.14
2016-04-21T04:32:44.839Z,21.11
2016-04-21T04:33:41.811Z,21.17
2016-04-21T04:34:41.891Z,21.14
2016-04-21T04:35:44.910Z,21.2
2016-04-21T04:36:44.725Z,21.07
2016-04-21T04:37:44.618Z,21.17
2016-04-21T04:38:41.825Z,21.1
2016-04-21T04:39:41.514Z,21.13
2016-04-21T04:40:41.470Z,21.14
2016-04-21T04:41:41.425Z,21.08
2016-04-21T04:42:41.381Z,21.08
2016-04-21T04:43:44.353Z,21.17
2016-04-21T04:44:47.559Z,21.08
2016-04-21T04:45:41.249Z,21.15
2016-04-21T04:46:41.205Z,21.08
2016-04-21T04:47:41.160Z,21.1
2016-04-21T04:48:41.102Z,21.14
2016-04-21T04:49:44.088Z,21.07
2016-04-21T04:50:47.028Z,21.11
2016-04-21T04:51:44.109Z,21.07
2016-04-21T04:52:44.252Z,21.1
2016-04-21T04:53:40.896Z,21.08
2016-04-21T04:54:43.821Z,21.04
2016-04-21T04:55:46.808Z,21.07
2016-04-21T04:56:43.748Z,21.05
2016-04-21T04:57:44.110Z,21.13
2016-04-21T04:58:43.690Z,21.11
2016-04-21T04:59:40.599Z,21.1
2016-04-21T05:00:43.554Z,21.07
2016-04-21T05:01:46.527Z,21.13
2016-04-21T05:02:43.498Z,21.13
2016-04-21T05:03:40.423Z,21.1
2016-04-21T05:04:43.440Z,21.08
2016-04-21T05:05:40.334Z,21.08
2016-04-21T05:06:43.899Z,21.11
2016-04-21T05:07:43.245Z,21.11
2016-04-21T05:08:43.218Z,21.05
2016-04-21T05:09:40.470Z,21.14
2016-04-21T05:10:43.161Z,21.08
2016-04-21T05:11:40.053Z,21.1
2016-04-21T05:12:43.134Z,21.08
2016-04-21T05:13:42.980Z,21.11
2016-04-21T05:14:39.936Z,21.08
2016-04-21T05:15:39.877Z,21.08
2016-04-21T05:16:39.833Z,21.08
2016-04-21T05:17:39.788Z,21.11
2016-04-21T05:18:42.744Z,21.1
2016-04-21T05:19:39.888Z,21.03
2016-04-21T05:20:42.656Z,21.03
2016-04-21T05:21:45.611Z,21.08
2016-04-21T05:22:45.583Z,21.08
2016-04-21T05:23:45.788Z,21.07
2016-04-21T05:24:39.479Z,21.05
2016-04-21T05:25:39.435Z,21.07
2016-04-21T05:26:39.374Z,21.05
2016-04-21T05:27:39.377Z,21.08
2016-04-21T05:28:39.287Z,21.07
2016-04-21T05:29:42.258Z,21.1
2016-04-21T05:30:39.215Z,21.1
2016-04-21T05:31:45.201Z,21.08
2016-04-21T05:32:39.110Z,21.1
2016-04-21T05:33:42.290Z,21.1
2016-04-21T05:34:43.528Z,21.1
2016-04-21T05:35:44.982Z,21.05
2016-04-21T05:36:42.578Z,21.08
2016-04-21T05:37:38.884Z,21.1
2016-04-21T05:38:38.840Z,21.07
2016-04-21T05:39:42.249Z,21.07
2016-04-21T05:40:42.034Z,21
2016-04-21T05:41:38.707Z,21.05
2016-04-21T05:42:41.709Z,21.1
2016-04-21T05:43:41.807Z,21.1
2016-04-21T05:44:44.747Z,21.1
2016-04-21T05:45:41.358Z,21.07
2016-04-21T05:46:44.487Z,21
2016-04-21T05:47:38.614Z,21.1
2016-04-21T05:48:44.601Z,21
2016-04-21T05:49:41.354Z,20.98
2016-04-21T05:50:41.419Z,21.08
2016-04-21T05:51:41.563Z,21.05
2016-04-21T05:52:41.549Z,21.04
2016-04-21T05:53:47.162Z,21.03
2016-04-21T05:54:38.102Z,21
2016-04-21T05:55:38.057Z,21.11
2016-04-21T05:56:41.014Z,21.03
2016-04-21T05:57:40.985Z,21.08
2016-04-21T05:58:40.909Z,21.04
2016-04-21T05:59:40.866Z,21
2016-04-21T06:00:37.821Z,20.96
2016-04-21T06:01:37.793Z,21.1
2016-04-21T06:02:40.780Z,21.1
2016-04-21T06:03:37.798Z,20.96
2016-04-21T06:04:37.660Z,20.95
2016-04-21T06:05:40.616Z,20.96
2016-04-21T06:06:37.556Z,21.05
2016-04-21T06:07:37.621Z,21.03
2016-04-21T06:08:40.467Z,21.04
2016-04-21T06:09:37.470Z,21.05
2016-04-21T06:10:40.395Z,20.98
2016-04-21T06:11:40.210Z,21
2016-04-21T06:12:40.509Z,20.98
2016-04-21T06:13:37.247Z,20.96
2016-04-21T06:14:37.078Z,20.93
2016-04-21T06:15:37.159Z,21.04
2016-04-21T06:16:40.411Z,21.05
2016-04-21T06:17:43.351Z,20.98
2016-04-21T06:18:36.995Z,20.96
2016-04-21T06:19:36.981Z,20.96
2016-04-21T06:20:39.937Z,20.86
2016-04-21T06:21:42.877Z,20.93
2016-04-21T06:22:39.849Z,21
2016-04-21T06:23:39.789Z,21
2016-04-21T06:24:45.807Z,20.95
2016-04-21T06:25:39.700Z,21
2016-04-21T06:26:35.922Z,21.03
2016-04-21T06:27:39.800Z,21.01
2016-04-21T06:28:39.865Z,20.96
2016-04-21T06:29:39.540Z,20.93
2016-04-21T06:30:36.449Z,20.96
2016-04-21T06:31:39.749Z,20.93
2016-04-21T06:32:39.799Z,20.95
2016-04-21T06:33:48.316Z,20.89
2016-04-21T06:34:42.288Z,20.95
2016-04-21T06:35:36.274Z,20.92
2016-04-21T06:36:42.215Z,20.9
2016-04-21T06:37:39.358Z,20.95
2016-04-21T06:38:42.393Z,20.88
2016-04-21T06:39:36.051Z,20.82
2016-04-21T06:40:38.866Z,20.93
2016-04-21T06:41:39.151Z,20.9
2016-04-21T06:42:41.934Z,20.92
2016-04-21T06:43:35.952Z,20.89
2016-04-21T06:44:38.831Z,20.85
2016-04-21T06:45:38.801Z,20.93
2016-04-21T06:46:41.757Z,20.89
2016-04-21T06:47:35.698Z,20.92
2016-04-21T06:48:35.654Z,20.95
2016-04-21T06:49:35.609Z,21
2016-04-21T06:50:38.565Z,20.9
2016-04-21T06:51:35.521Z,20.95
2016-04-21T06:52:35.523Z,20.88
2016-04-21T06:53:38.417Z,20.9
2016-04-21T06:54:38.373Z,20.95
2016-04-21T06:55:35.531Z,20.93
2016-04-21T06:56:41.488Z,21.01
2016-04-21T06:57:38.256Z,20.98
2016-04-21T06:58:35.274Z,21
2016-04-21T06:59:35.152Z,20.93
2016-04-21T07:00:35.217Z,21.04
2016-04-21T07:01:35.360Z,21
2016-04-21T07:02:35.191Z,21
2016-04-21T07:03:35.366Z,21
2016-04-21T07:04:35.212Z,20.96
2016-04-21T07:05:34.871Z,20.96
2016-04-21T07:06:43.843Z,20.96
2016-04-21T07:07:35.001Z,20.93
2016-04-21T07:08:34.738Z,21.01
2016-04-21T07:09:34.679Z,20.96
2016-04-21T07:10:37.681Z,21
2016-04-21T07:11:34.668Z,21
2016-04-21T07:12:37.562Z,20.9
2016-04-21T07:13:38.143Z,20.98
2016-04-21T07:14:34.676Z,20.98
2016-04-21T07:15:34.460Z,21
2016-04-21T07:16:34.587Z,21.01
2016-04-21T07:17:34.512Z,21.03
2016-04-21T07:18:37.297Z,21.03
2016-04-21T07:19:40.658Z,20.93
2016-04-21T07:20:34.193Z,20.96
2016-04-21T07:21:37.164Z,20.96
2016-04-21T07:22:35.166Z,20.92
2016-04-21T07:23:34.045Z,21
2016-04-21T07:24:34.001Z,21.03
2016-04-21T07:25:34.269Z,21
2016-04-21T07:26:33.928Z,21.03
2016-04-21T07:27:33.868Z,20.92
2016-04-21T07:28:37.027Z,21.01
2016-04-21T07:29:33.780Z,20.98
2016-04-21T07:30:36.750Z,20.89
2016-04-21T07:31:36.707Z,20.95
2016-04-21T07:32:36.897Z,21
2016-04-21T07:33:33.618Z,20.98
2016-04-21T07:34:33.715Z,20.95
2016-04-21T07:35:34.138Z,20.96
2016-04-21T07:37:36.645Z,20.98
2016-04-21T07:38:33.522Z,21
2016-04-21T07:39:42.540Z,21
2016-04-21T07:40:33.497Z,20.88
2016-04-21T07:41:33.452Z,20.96
2016-04-21T07:42:33.471Z,20.92
2016-04-21T07:43:36.333Z,20.96
2016-04-21T07:44:33.570Z,21.01
2016-04-21T07:45:33.151Z,20.96
2016-04-21T07:46:36.012Z,20.96
2016-04-21T07:47:32.953Z,20.96
2016-04-21T07:48:35.971Z,20.96
2016-04-21T07:49:32.895Z,20.98
2016-04-21T07:50:32.914Z,20.96
2016-04-21T07:51:35.886Z,20.95
2016-04-21T07:52:35.904Z,20.98
2016-04-21T07:53:32.734Z,20.96
2016-04-21T07:54:32.675Z,21.04
2016-04-21T07:55:32.834Z,20.93
2016-04-21T07:56:36.492Z,21.03
2016-04-21T07:57:35.527Z,21.07
2016-04-21T07:58:35.498Z,21.05
2016-04-21T07:59:32.422Z,21.03
2016-04-21T08:00:32.410Z,21.07
2016-04-21T08:01:35.802Z,21.05
2016-04-21T08:02:32.291Z,21.04
2016-04-21T08:03:32.261Z,21.05
2016-04-21T08:04:32.591Z,21.05
2016-04-21T08:05:32.158Z,21.08
2016-04-21T08:06:32.097Z,21.05
2016-04-21T08:07:35.085Z,21.1
2016-04-21T08:08:35.025Z,21.03
2016-04-21T08:09:34.949Z,21.11
2016-04-21T08:10:32.171Z,21.11
2016-04-21T08:11:31.939Z,21.08
2016-04-21T08:12:31.832Z,21.14
2016-04-21T08:13:34.804Z,21.13
2016-04-21T08:14:34.916Z,21.14
2016-04-21T08:15:31.685Z,21.14
2016-04-21T08:16:31.890Z,21.14
2016-04-21T08:17:34.596Z,21.11
2016-04-21T08:18:31.567Z,21.13
2016-04-21T08:19:31.524Z,21.15
2016-04-21T08:20:31.464Z,21.14
2016-04-21T08:21:31.404Z,21.15
2016-04-21T08:22:31.844Z,21.15
2016-04-21T08:23:31.377Z,21.19
2016-04-21T08:24:31.318Z,21.17
2016-04-21T08:25:31.570Z,21.2
2016-04-21T08:26:31.214Z,21.15
2016-04-21T08:27:31.294Z,21.22
2016-04-21T08:28:34.111Z,21.23
2016-04-21T08:29:31.081Z,21.15
2016-04-21T08:30:31.068Z,21.25
2016-04-21T08:31:31.025Z,21.19
2016-04-21T08:32:30.949Z,21.17
2016-04-21T08:33:34.717Z,21.26
2016-04-21T08:34:30.877Z,21.17
2016-04-21T08:35:30.847Z,21.25
2016-04-21T08:36:30.616Z,21.22
2016-04-21T08:37:30.884Z,21.25
2016-04-21T08:38:33.683Z,21.29
2016-04-21T08:39:33.640Z,21.23
2016-04-21T08:40:30.595Z,21.26
2016-04-21T08:41:30.552Z,21.33
2016-04-21T08:42:33.538Z,21.23
2016-04-21T08:43:30.416Z,21.28
2016-04-21T08:45:30.374Z,21.2
2016-04-21T08:46:30.376Z,21.32
2016-04-21T08:47:30.912Z,21.33
2016-04-21T08:48:30.321Z,21.29
2016-04-21T08:49:30.213Z,21.25
2016-04-21T08:50:30.215Z,21.29
2016-04-21T08:51:33.609Z,21.32
2016-04-21T08:52:33.086Z,21.25
2016-04-21T08:53:30.573Z,21.28
2016-04-21T08:54:30.059Z,21.28
2016-04-21T08:55:30.266Z,21.33
2016-04-21T08:56:30.064Z,21.33
2016-04-21T08:57:35.880Z,21.3
2016-04-21T08:58:30.070Z,21.35
2016-04-21T08:59:29.791Z,21.35
2016-04-21T09:00:29.669Z,21.32
2016-04-21T09:01:32.720Z,21.35
2016-04-21T09:02:32.566Z,21.41
2016-04-21T09:03:29.537Z,21.4
2016-04-21T09:04:29.477Z,21.37
2016-04-21T09:05:29.589Z,21.4
2016-04-21T09:06:29.405Z,21.37
2016-04-21T09:07:29.548Z,21.38
2016-04-21T09:08:29.316Z,21.43
2016-04-21T09:09:29.554Z,21.38
2016-04-21T09:10:29.634Z,21.43
2016-04-21T09:11:29.465Z,21.4
2016-04-21T09:12:29.357Z,21.32
2016-04-21T09:13:29.346Z,21.32
2016-04-21T09:14:29.036Z,21.35
2016-04-21T09:15:29.460Z,21.43
2016-04-21T09:16:28.931Z,21.37
2016-04-21T09:17:41.403Z,21.45
2016-04-21T09:18:29.061Z,21.43
2016-04-21T09:19:28.799Z,21.3
2016-04-21T09:20:28.770Z,21.35
2016-04-21T09:21:28.789Z,21.37
2016-04-21T09:22:31.775Z,21.3
2016-04-21T09:23:31.622Z,21.38
2016-04-21T09:24:28.844Z,21.45
2016-04-21T09:25:31.737Z,21.33
2016-04-21T09:26:28.521Z,21.3
2016-04-21T09:27:28.993Z,21.47
2016-04-21T09:28:31.386Z,21.45
2016-04-21T09:29:28.326Z,21.38
2016-04-21T09:30:34.360Z,21.45
2016-04-21T09:31:28.503Z,21.5
2016-04-21T09:32:28.458Z,21.51
2016-04-21T09:33:28.133Z,21.41
2016-04-21T09:34:28.136Z,21.47
2016-04-21T09:35:31.264Z,21.53
2016-04-21T09:36:28.344Z,21.45
2016-04-21T09:37:30.988Z,21.45
2016-04-21T09:38:31.193Z,21.45
2016-04-21T09:39:31.135Z,21.47
2016-04-21T09:40:30.824Z,21.4
2016-04-21T09:41:28.186Z,21.41
2016-04-21T09:42:30.954Z,21.47
2016-04-21T09:43:27.720Z,21.4
2016-04-21T09:44:27.707Z,21.44
2016-04-21T09:45:27.694Z,21.38
2016-04-21T09:46:27.556Z,21.48
2016-04-21T09:47:27.637Z,21.47
2016-04-21T09:48:27.671Z,21.5
2016-04-21T09:49:27.533Z,21.45
2016-04-21T09:50:27.365Z,21.47
2016-04-21T09:51:27.554Z,21.51
2016-04-21T09:52:30.295Z,21.51
2016-04-21T09:53:27.513Z,21.51
2016-04-21T09:54:27.312Z,21.54
2016-04-21T09:55:27.393Z,21.48
2016-04-21T09:56:27.131Z,21.6
2016-04-21T09:57:30.276Z,21.51
2016-04-21T09:58:27.604Z,21.47
2016-04-21T09:59:26.966Z,21.56
2016-04-21T10:00:26.923Z,21.58
2016-04-21T10:01:26.878Z,21.5
2016-04-21T10:02:26.881Z,21.54
2016-04-21T10:03:26.806Z,21.6
2016-04-21T10:04:26.792Z,21.43
2016-04-21T10:05:26.685Z,21.5
2016-04-21T10:06:26.735Z,21.58
2016-04-21T10:07:27.003Z,21.58
2016-04-21T10:08:26.756Z,21.6
2016-04-21T10:09:26.540Z,21.58
2016-04-21T10:10:26.465Z,21.54
2016-04-21T10:11:26.453Z,21.45
2016-04-21T10:12:26.484Z,21.56
2016-04-21T10:13:27.858Z,21.59
2016-04-21T10:14:26.858Z,21.58
2016-04-21T10:15:26.562Z,21.58
2016-04-21T10:16:35.982Z,21.54
2016-04-21T10:17:29.513Z,21.56
2016-04-21T10:18:35.394Z,21.54
2016-04-21T10:19:26.456Z,21.58
2016-04-21T10:20:26.569Z,21.53
2016-04-21T10:21:26.126Z,21.56
2016-04-21T10:22:26.446Z,21.58
2016-04-21T10:23:29.191Z,21.58
2016-04-21T10:24:26.167Z,21.56
2016-04-21T10:25:26.363Z,21.58
2016-04-21T10:26:26.291Z,21.63
2016-04-21T10:27:29.107Z,21.54
2016-04-21T10:28:26.268Z,21.54
2016-04-21T10:29:25.977Z,21.51
2016-04-21T10:30:28.903Z,21.58
2016-04-21T10:31:25.845Z,21.59
2016-04-21T10:32:25.926Z,21.53
2016-04-21T10:33:26.132Z,21.59
2016-04-21T10:34:25.995Z,21.53
2016-04-21T10:35:25.686Z,21.53
2016-04-21T10:36:28.642Z,21.53
2016-04-21T10:37:25.583Z,21.56
2016-04-21T10:38:25.587Z,21.54
2016-04-21T10:39:25.511Z,21.58
2016-04-21T10:40:28.560Z,21.59
2016-04-21T10:41:25.251Z,21.56
2016-04-21T10:42:25.566Z,21.54
2016-04-21T10:43:25.304Z,21.56
2016-04-21T10:44:28.275Z,21.58
2016-04-21T10:45:25.324Z,21.59
2016-04-21T10:46:25.468Z,21.58
2016-04-21T10:47:25.329Z,21.65
2016-04-21T10:48:28.615Z,21.56
2016-04-21T10:49:25.132Z,21.62
2016-04-21T10:50:28.010Z,21.58
2016-04-21T10:51:26.029Z,21.58
2016-04-21T10:52:24.937Z,21.51
2016-04-21T10:53:24.862Z,21.53
2016-04-21T10:54:24.849Z,21.51
2016-04-21T10:55:27.820Z,21.56
2016-04-21T10:56:27.776Z,21.62
2016-04-21T10:57:24.935Z,21.66
2016-04-21T10:58:24.625Z,21.6
2016-04-21T10:59:27.784Z,21.63
2016-04-21T11:00:24.614Z,21.58
2016-04-21T11:01:24.492Z,21.6
2016-04-21T11:02:30.464Z,21.51
2016-04-21T11:03:27.623Z,21.66
2016-04-21T11:04:24.360Z,21.58
2016-04-21T11:05:24.660Z,21.51
2016-04-21T11:06:24.350Z,21.6
2016-04-21T11:07:24.775Z,21.65
2016-04-21T11:08:24.215Z,21.66
2016-04-21T11:09:27.155Z,21.53
2016-04-21T11:10:27.126Z,21.62
2016-04-21T11:11:24.051Z,21.63
2016-04-21T11:12:24.413Z,21.54
2016-04-21T11:13:23.979Z,21.6
2016-04-21T11:14:23.996Z,21.59
2016-04-21T11:15:23.843Z,21.51
2016-04-21T11:16:26.830Z,21.53
2016-04-21T11:17:23.771Z,21.62
2016-04-21T11:18:23.834Z,21.56
2016-04-21T11:19:23.665Z,21.63
2016-04-21T11:20:23.793Z,21.6
2016-04-21T11:21:27.015Z,21.6
2016-04-21T11:22:26.861Z,21.51
2016-04-21T11:23:26.584Z,21.56
2016-04-21T11:24:23.804Z,21.53
2016-04-21T11:25:27.042Z,21.59
2016-04-21T11:26:23.434Z,21.53
2016-04-21T11:27:26.375Z,21.53
2016-04-21T11:28:23.909Z,21.53
2016-04-21T11:29:26.256Z,21.53
2016-04-21T11:30:23.399Z,21.51
2016-04-21T11:31:23.261Z,21.51
2016-04-21T11:32:23.091Z,21.54
2016-04-21T11:33:23.110Z,21.62
2016-04-21T11:34:23.113Z,21.65
2016-04-21T11:35:32.413Z,21.51
2016-04-21T11:36:22.946Z,21.62
2016-04-21T11:37:26.121Z,21.56
2016-04-21T11:38:25.826Z,21.54
2016-04-21T11:39:22.985Z,21.56
2016-04-21T11:40:22.738Z,21.62
2016-04-21T11:41:23.179Z,21.53
2016-04-21T11:42:22.635Z,21.66
2016-04-21T11:43:23.121Z,21.51
2016-04-21T11:44:22.562Z,21.62
2016-04-21T11:45:25.815Z,21.63
2016-04-21T11:46:22.474Z,21.51
2016-04-21T11:47:22.413Z,21.56
2016-04-21T11:48:22.384Z,21.58
2016-04-21T11:49:25.371Z,21.54
2016-04-21T11:50:25.328Z,21.53
2016-04-21T11:51:22.846Z,21.63
2016-04-21T11:52:22.459Z,21.6
2016-04-21T11:53:22.461Z,21.63
2016-04-21T11:54:25.134Z,21.66
2016-04-21T11:55:22.262Z,21.54
2016-04-21T11:56:22.125Z,21.59
2016-04-21T11:57:24.956Z,21.65
2016-04-21T11:58:21.990Z,21.62
2016-04-21T11:59:21.898Z,21.54
2016-04-21T12:00:21.886Z,21.6
2016-04-21T12:01:22.200Z,21.59
2016-04-21T12:02:22.110Z,21.68
2016-04-21T12:03:21.988Z,21.62
2016-04-21T12:04:21.725Z,21.65
2016-04-21T12:05:21.900Z,21.65
2016-04-21T12:06:21.667Z,21.62
2016-04-21T12:07:24.561Z,21.6
2016-04-21T12:08:21.813Z,21.54
2016-04-21T12:09:24.457Z,21.6
2016-04-21T12:10:27.382Z,21.59
2016-04-21T12:11:24.368Z,21.59
2016-04-21T12:12:27.340Z,21.62
2016-04-21T12:13:21.327Z,21.59
2016-04-21T12:14:21.251Z,21.58
2016-04-21T12:15:21.270Z,21.66
2016-04-21T12:16:21.304Z,21.58
2016-04-21T12:17:21.385Z,21.62
2016-04-21T12:18:24.371Z,21.63
2016-04-21T12:19:21.109Z,21.65
2016-04-21T12:20:21.142Z,21.58
2016-04-21T12:21:20.926Z,21.58
2016-04-21T12:22:23.898Z,21.66
2016-04-21T12:23:23.884Z,21.53
2016-04-21T12:24:20.748Z,21.72
2016-04-21T12:25:20.906Z,21.54
2016-04-21T12:26:20.737Z,21.65
2016-04-21T12:27:20.614Z,21.58
2016-04-21T12:28:23.618Z,21.53
2016-04-21T12:29:21.620Z,21.56
2016-04-21T12:30:23.856Z,21.58
2016-04-21T12:31:20.969Z,21.62
2016-04-21T12:32:23.441Z,21.54
2016-04-21T12:33:20.944Z,21.56
2016-04-21T12:34:20.664Z,21.54
2016-04-21T12:35:24.152Z,21.59
2016-04-21T12:36:21.279Z,21.66
2016-04-21T12:37:25.032Z,21.6
2016-04-21T12:38:29.550Z,21.6
2016-04-21T12:39:23.178Z,21.62
2016-04-21T12:40:20.337Z,21.56
2016-04-21T12:41:20.027Z,21.59
2016-04-21T12:42:19.968Z,21.58
2016-04-21T12:43:20.174Z,21.6
2016-04-21T12:44:25.848Z,21.58
2016-04-21T12:45:23.022Z,21.58
2016-04-21T12:46:19.759Z,21.63
2016-04-21T12:47:22.699Z,21.6
2016-04-21T12:48:19.655Z,21.58
2016-04-21T12:49:19.704Z,21.63
2016-04-21T12:50:19.990Z,21.48
2016-04-21T12:51:23.054Z,21.65
2016-04-21T12:52:19.526Z,21.6
2016-04-21T12:53:22.779Z,21.6
2016-04-21T12:54:19.437Z,21.63
2016-04-21T12:55:19.346Z,21.6
2016-04-21T12:56:19.364Z,21.6
2016-04-21T12:57:19.601Z,21.6
2016-04-21T12:58:19.636Z,21.54
2016-04-21T12:59:19.279Z,21.62
2016-04-21T13:00:22.173Z,21.56